Tiempo atmosférico en la estación meteorológica de Albarracín, Teruel (1130 m.)



Fecha
DESCASC
Temp. máxima en grados centígrados (hora)
DESCASC
Temp. mínima en grados centígrados (hora)
DESCASC
Temp. media en grados centígrados
DESCASC
Racha de viento máxima en m/sg (hora)
DESCASC
Velocidad máxima media en intervalos de 10 minutos(hora)
DESCASC
Precipitaciones diarias en mm
DESCASC
Precipitaciones de 00:00 a 06:00 en mm
DESCASC
Precipitaciones de 06:00 a 12:00 en mm
DESCASC
Precipitaciones de 12:00 a 18:00 en mm
DESCASC
Precipitaciones de 18:00 a 24:00 en mm
DESCASC
26-11-2020 10.8 (13:00) 0.5 (04:10) 5.7 10 (21:40) 4.72 (23:00) 0.2 0 0 0.2 0
25-11-2020 11.3 (14:20) -2.1 (08:00) 4.6 8.89 (14:20) 4.44 (14:00) 0 0 0 0 0
24-11-2020 15.5 (15:00) -2.9 (06:30) 6.3 7.78 (09:20) 5.28 (09:10) 0 0 0 0 0
23-11-2020 15.1 (15:30) -2.8 (06:50) 6.2 6.94 (09:50) 4.44 (08:50) 0 0 0 0 0
22-11-2020 14.8 (15:10) -3.2 (-00:0) 5.8 7.22 (03:50) 4.17 (02:50) 0 0 0 0 0
21-11-2020 14.7 (16:00) -2.6 (-00:0) 6 6.67 (09:30) 4.44 (09:30) 0 0 0 0 0
20-11-2020 13 (14:50) -0.6 (-00:0) 6.2 10.28 (11:10) 6.67 (11:00) 0 0 0 0 0
19-11-2020 16.6 (15:10) 1.8 (00:00) 9.2 11.67 (12:30) 7.22 (11:30) 0 0 0 0 0
18-11-2020 21.1 (14:50) 3.2 (00:00) 12.2 8.61 (15:20) 4.72 (16:10) 0 0 0 0 0
17-11-2020 18.3 (16:00) 1.6 (00:00) 9.9 5.83 (09:00) 3.61 (09:00) 0 0 0 0 0
16-11-2020 17 (14:50) 5.1 (00:00) 11 8.06 (09:50) 4.44 (09:50) 0 0 0 0 0
15-11-2020 16.6 (13:20) 5.3 (00:00) 11 9.72 (16:10) 4.72 (12:10) 0 0 0 0 0
14-11-2020 13.3 (16:00) 4.4 (00:00) 8.9 4.72 (16:40) 3.06 (16:40) 0 0 0 0 0
13-11-2020 15.5 (16:00) 3.8 (00:00) 9.6 6.39 (09:50) 4.44 (05:00) 0 0 0 0 0
12-11-2020 14.4 (15:20) 2.5 (00:00) 8.4 5.83 (02:10) 3.89 (02:10) 0 0 0 0 0
11-11-2020 16.4 (14:50) 0.5 (00:00) 8.4 8.06 (13:30) 5.28 (04:20) 0 0 0 0 0
10-11-2020 14.1 (14:10) 1 (00:00) 7.6 5.28 (09:40) 2.78 (16:20) 0 0 0 0 0
09-11-2020 14.7 (12:50) 1.9 (00:00) 8.3 7.78 (14:50) 3.61 (13:00) 0 0 0 0 0
08-11-2020 16.7 (13:10) 2.6 (00:00) 9.7 7.22 (14:20) 4.17 (14:20) 0 0 0 0 0
07-11-2020 12.3 (15:20) 7.2 (00:00) 9.8 13.33 (05:00) 7.5 (04:50) 6.2 5 1 0.2 0
06-11-2020 17.5 (13:20) 6.1 (00:00) 11.8 10.56 (11:10) 6.39 (11:10) 0 0 0 0 0
05-11-2020 11.2 (13:10) 6.1 (00:00) 8.6 10.83 (10:50) 5.83 (13:10) 14.4 0 0 10.2 4.2
04-11-2020 6.6 (00:00) 3.9 (00:00) 5.3 6.11 (02:10) 3.06 (02:10) 6.6 2.2 1 2.6 0.8
03-11-2020 14.4 (11:20) 6.5 (00:00) 10.4 10.56 (15:50) 6.94 (15:50) 5.4 0 0 2.4 3
02-11-2020 22.8 (15:00) 3 (00:00) 12.9 7.5 (02:10) 5 (02:20) 0 0 0 0 0
01-11-2020 23.1 (14:00) 3.7 (00:00) 13.4 7.22 (09:20) 4.72 (09:20) 0 0 0 0 0
31-10-2020 23.3 (15:10) 2 (00:00) 12.6 7.78 (01:40) 5.56 (01:40) 0 0 0 0 0
30-10-2020 24.7 (14:50) 0.1 (00:00) 12.4 7.78 (18:50) 4.44 (18:50) 0 0 0 0 0
29-10-2020 22.2 (14:50) 4.8 (00:00) 13.5 6.67 (23:59) 3.89 (15:30) 0 0 0 0 0
28-10-2020 20 (13:30) 2.2 (00:00) 11.1 8.33 (13:00) 4.17 (13:00) 0 0 0 0 0

Gráficas

Temp. máximas Temp. mínimas Temp. medias Precipitaciones Rachas de viento máximas Velocidades máximas media en intervalos de 10 minutos

Datos horarios

Fecha y hora oficial Temperatura (ºC) Velocidad del viento (km/h) Dirección del viento Racha (km/h) Dirección de racha Precipitación (mm) Presión (hPa) Tendencia (hPa) Humedad (%)
2020-11-26 23:00:00 9.3 17 Este 33 Nordeste 0 -- -- 78
2020-11-26 22:00:00 8.7 8 Nordeste 36 Este 0 -- -- 83
2020-11-26 21:00:00 9.1 15 Este 32 Este 0 -- -- 83
2020-11-26 20:00:00 8.5 6 Nordeste 23 Nordeste 0 -- -- 88
2020-11-26 19:00:00 8.5 6 Nordeste 26 Este 0 -- -- 87
2020-11-26 18:00:00 8.9 11 Nordeste 25 Este 0 -- -- 85
2020-11-26 17:00:00 9.3 13 Este 27 Sudeste 0 -- -- 80
2020-11-26 16:00:00 9.6 9 Este 26 Sudeste 0 -- -- 84
2020-11-26 15:00:00 9.8 15 Este 25 Este 0 -- -- 81
2020-11-26 14:00:00 10.2 12 Este 26 Sudeste 0 -- -- 76
2020-11-26 13:00:00 10.8 12 Este 26 Este 0.2 -- -- 73
2020-11-26 12:00:00 8.1 5 Este 19 Nordeste 0 -- -- 87
2020-11-26 11:00:00 7.3 3 Norte 13 Este 0 -- -- 92
2020-11-26 10:00:00 4.8 0 Calma 6 Oeste 0 -- -- 94
2020-11-26 09:00:00 3.2 0 Calma 8 Oeste 0 -- -- 94
2020-11-26 08:00:00 2.6 3 Sudoeste 7 Sudeste 0 -- -- 95
2020-11-26 07:00:00 2.1 3 Norte 6 Sur 0 -- -- 95
2020-11-26 06:00:00 1.9 4 Oeste 6 Oeste 0 -- -- 95
2020-11-26 05:00:00 0.9 3 Sur 9 Sudeste 0 -- -- 96
2020-11-26 04:00:00 0.6 4 Nordeste 7 Oeste 0 -- -- 94
2020-11-26 03:00:00 0.8 2 Sur 8 Este 0 -- -- 95
2020-11-26 02:00:00 1 2 Sur 5 Este 0 -- -- 95
2020-11-26 01:00:00 0.9 2 Oeste 8 Sur 0 -- -- 96
2020-11-26 00:00:00 1.2 3 Sur 6 Sudoeste 0 -- -- 93
2020-11-25 23:00:00 3 0 Calma 5 Sur 0 -- -- 92
2020-11-25 22:00:00 3.6 0 Calma 5 Sudeste 0 -- -- 90
2020-11-25 21:00:00 4.1 2 Noroeste 7 Noroeste 0 -- -- 89
2020-11-25 20:00:00 5.2 3 Noroeste 11 Sur 0 -- -- 84
2020-11-25 19:00:00 6.9 6 Sur 11 Sur 0 -- -- 80
2020-11-25 18:00:00 8.3 7 Sudeste 20 Sudeste 0 -- -- 74
2020-11-25 17:00:00 8.8 11 Sudeste 24 Sudeste -- -- -- 71
2020-11-25 16:00:00 9.8 13 Sudeste 23 Sudeste 0 -- -- 67
2020-11-25 15:00:00 10.3 10 Sudeste 32 Sudeste 0 -- -- 60
2020-11-25 14:00:00 10.1 16 Sudeste 29 Sudeste 0 -- -- 65
2020-11-25 13:00:00 9.5 11 Sur 26 Sudeste 0 -- -- 68
2020-11-25 12:00:00 9 9 Sudeste 19 Sur 0 -- -- 68
2020-11-25 11:00:00 5 3 Nordeste 7 Este 0 -- -- 75
2020-11-25 10:00:00 2.1 2 Oeste 8 Sudeste 0 -- -- 83
2020-11-25 09:00:00 -1 0 Calma 7 Sudeste 0 -- -- 91
2020-11-25 08:00:00 -2.1 3 Sur 8 Sur 0 -- -- 90
2020-11-25 07:00:00 -1.2 0 Calma 7 Norte 0 -- -- 89
2020-11-25 06:00:00 -1.1 2 Sur 12 Oeste 0 -- -- 88
2020-11-25 05:00:00 -0.3 4 Sudeste 9 Sudeste 0 -- -- 86
2020-11-25 04:00:00 -0.9 9 Sudeste 12 Sudeste 0 -- -- 86
2020-11-25 03:00:00 -1.8 3 Sur 6 Oeste 0 -- -- 85
2020-11-25 02:00:00 -1 3 Oeste 9 Sur 0 -- -- 82
2020-11-25 01:00:00 -0.1 2 Sudoeste 7 Sur 0 -- -- 79
2020-11-25 00:00:00 0.5 3 Sur 8 Sudoeste 0 -- -- 76
2020-11-24 23:00:00 0.7 3 Oeste 6 Oeste 0 -- -- 74
2020-11-24 22:00:00 1.9 0 Calma 12 Sudeste 0 -- -- 66
2020-11-24 21:00:00 4 5 Sudeste 18 Sur 0 -- -- 59
2020-11-24 20:00:00 7 14 Sur 19 Sur 0 -- -- 50
2020-11-24 19:00:00 7.5 9 Sudoeste 14 Sudoeste 0 -- -- 47
2020-11-24 18:00:00 10 3 Sur 13 Sudoeste 0 -- -- 40
2020-11-24 17:00:00 12.4 8 Sudoeste 13 Sudoeste 0 -- -- 33
2020-11-24 16:00:00 15 5 Sur 21 Sudeste 0 -- -- 26
2020-11-24 15:00:00 15.5 12 Sudeste 21 Sudeste 0 -- -- 26
2020-11-24 14:00:00 15.1 9 Sudeste 19 Sudeste 0 -- -- 24
2020-11-24 13:00:00 14 8 Sudeste 15 Sudeste 0 -- -- 25
2020-11-24 12:00:00 11.7 6 Sudeste 15 Este 0 -- -- 40
2020-11-24 11:00:00 6.6 13 Sudeste 21 Sudeste 0 -- -- 50
2020-11-24 10:00:00 2.6 14 Sudeste 28 Sudeste 0 -- -- 60
2020-11-24 09:00:00 -1.3 13 Sudeste 22 Sudeste 0 -- -- 77
2020-11-24 08:00:00 -2.5 10 Sudeste 20 Sudeste 0 -- -- 83
2020-11-24 07:00:00 -2.1 6 Sudeste 17 Sudeste 0 -- -- 86
2020-11-24 06:00:00 -2.1 4 Noroeste 21 Este 0 -- -- 85
2020-11-24 05:00:00 -0.8 5 Oeste 22 Sudeste 0 -- -- 84
2020-11-24 04:00:00 0 9 Sudeste 25 Este 0 -- -- 82
2020-11-24 03:00:00 0.5 9 Sudeste 21 Sudeste 0 -- -- 80
2020-11-24 02:00:00 1.1 4 Norte 27 Sudeste 0 -- -- 78
2020-11-24 01:00:00 1.7 8 Sudeste 20 Sudeste 0 -- -- 76
2020-11-24 00:00:00 2.3 8 Sudeste 20 Sudeste 0 -- -- 74
2020-11-23 23:00:00 3 12 Sudeste 19 Sudeste 0 -- -- 72
2020-11-23 22:00:00 3.8 11 Sudeste 17 Sudeste 0 -- -- 69
2020-11-23 21:00:00 4.4 3 Sur 14 Sudeste 0 -- -- 66
2020-11-23 20:00:00 4.8 0 Calma 5 Oeste 0 -- -- 63
2020-11-23 19:00:00 6.6 0 Calma 6 Oeste 0 -- -- 56
2020-11-23 18:00:00 8.2 3 Noroeste 9 Noroeste 0 -- -- 51
2020-11-23 17:00:00 12.4 5 Noroeste 13 Norte 0 -- -- 42
2020-11-23 16:00:00 14.2 8 Nordeste 14 Nordeste 0 -- -- 39
2020-11-23 15:00:00 14.4 6 Nordeste 13 Norte 0 -- -- 39
2020-11-23 14:00:00 13.6 7 Norte 14 Norte 0 -- -- 40
2020-11-23 13:00:00 12.3 5 Norte 13 Norte 0 -- -- 42
2020-11-23 12:00:00 10.2 5 Norte 12 Sudeste 0 -- -- 47
2020-11-23 11:00:00 7 10 Sudeste 22 Este 0 -- -- 57
2020-11-23 10:00:00 2.7 14 Sudeste 25 Este 0 -- -- 67
2020-11-23 09:00:00 -0.3 16 Sudeste 25 Este 0 -- -- 77
2020-11-23 08:00:00 -2.3 6 Sudeste 15 Este 0 -- -- 86
2020-11-23 07:00:00 -2.6 3 Norte 12 Este 0 -- -- 87
2020-11-23 06:00:00 -2.3 3 Noroeste 13 Este 0 -- -- 85
2020-11-23 05:00:00 -1.6 2 Oeste 11 Sudeste 0 -- -- 85
2020-11-23 04:00:00 -1.5 4 Noroeste 19 Este 0 -- -- 82
2020-11-23 03:00:00 -0.8 3 Oeste 18 Sudeste 0 -- -- 82
2020-11-23 02:00:00 -0.3 4 Noroeste 18 Sudeste 0 -- -- 81
2020-11-23 01:00:00 0.8 8 Este 18 Sudeste 0 -- -- 76
2020-11-23 00:00:00 0.8 3 Nordeste 16 Sudeste 0 -- -- 75
2020-11-22 23:00:00 2.3 8 Sudeste 18 Sudeste 0 -- -- 71
2020-11-22 22:00:00 2.3 2 Oeste 8 Sudeste 0 -- -- 72
2020-11-22 21:00:00 3 0 Calma 6 Sudeste 0 -- -- 69
2020-11-22 20:00:00 4.7 0 Calma 4 Sudeste 0 -- -- 64
2020-11-22 19:00:00 6.5 4 Norte 8 Sudeste 0 -- -- 58
2020-11-22 18:00:00 7.7 0 Calma 9 Norte 0 -- -- 52
2020-11-22 17:00:00 12.7 5 Nordeste 17 Nordeste 0 -- -- 40
2020-11-22 16:00:00 14.7 5 Nordeste 13 Norte 0 -- -- 32
2020-11-22 15:00:00 14.5 4 Noroeste 17 Norte 0 -- -- 33
2020-11-22 14:00:00 13.7 9 Norte 15 Norte 0 -- -- 34
2020-11-22 13:00:00 13 9 Norte 14 Noroeste 0 -- -- 33
2020-11-22 12:00:00 11 0 Calma 13 Sudeste 0 -- -- 37
2020-11-22 11:00:00 7 8 Sudeste 19 Sudeste 0 -- -- 45
2020-11-22 10:00:00 2.5 9 Sudeste 22 Este 0 -- -- 62
2020-11-22 09:00:00 -0.7 9 Este 20 Este 0 -- -- 73
2020-11-22 08:00:00 -2.5 7 Sudeste 21 Sudeste 0 -- -- 80
2020-11-22 07:00:00 -3.2 4 Norte 16 Este 0 -- -- 84
2020-11-22 06:00:00 -2.4 4 Sudeste 16 Sudeste 0 -- -- 82
2020-11-22 05:00:00 -1.9 5 Sudeste 19 Este 0 -- -- 81
2020-11-22 04:00:00 -0.9 9 Sudeste 26 Este 0 -- -- 77
2020-11-22 03:00:00 -0.5 12 Sudeste 24 Este 0 -- -- 75
2020-11-22 02:00:00 0.1 14 Sudeste 25 Sudeste 0 -- -- 73
2020-11-22 01:00:00 0.4 13 Sudeste 22 Este 0 -- -- 71
2020-11-22 00:00:00 1 8 Sudeste 19 Sudeste 0 -- -- 69
2020-11-21 23:00:00 1.3 4 Sudeste 17 Sudeste 0 -- -- 67
2020-11-21 22:00:00 2 5 Sur 19 Sudeste 0 -- -- 65
2020-11-21 21:00:00 3.3 5 Sur 13 Sudeste 0 -- -- 60
2020-11-21 20:00:00 3.9 3 Sur 8 Oeste 0 -- -- 58
2020-11-21 19:00:00 5.5 3 Sur 8 Oeste 0 -- -- 49
2020-11-21 18:00:00 8.8 0 Calma 12 Oeste 0 -- -- 39
2020-11-21 17:00:00 11.2 8 Oeste 13 Este 0 -- -- 33
2020-11-21 16:00:00 14.7 7 Este 19 Norte 0 -- -- 25
2020-11-21 15:00:00 13.7 8 Nordeste 15 Norte 0 -- -- 30
2020-11-21 14:00:00 12.9 9 Norte 15 Norte 0 -- -- 35
2020-11-21 13:00:00 11.9 10 Norte 17 Norte 0 -- -- 33
2020-11-21 12:00:00 11.7 9 Este 19 Este 0 -- -- 32
2020-11-21 11:00:00 7.2 12 Sudeste 22 Sudeste 0 -- -- 44
2020-11-21 10:00:00 2.7 14 Este 24 Este 0 -- -- 55
2020-11-21 09:00:00 -1.3 6 Sudeste 17 Este 0 -- -- 73
2020-11-21 08:00:00 -2.6 2 Noroeste 12 Sudeste 0 -- -- 76
2020-11-21 07:00:00 -2 6 Sudeste 14 Sudeste 0 -- -- 74
2020-11-21 06:00:00 -1.6 4 Sudoeste 17 Sudeste 0 -- -- 74
2020-11-21 05:00:00 -1.5 5 Sudeste 10 Sudeste 0 -- -- 75
2020-11-21 04:00:00 -1.1 2 Oeste 8 Sudeste 0 -- -- 72
2020-11-21 03:00:00 -0.6 2 Oeste 11 Sur 0 -- -- 75
2020-11-21 02:00:00 -1.1 5 Sudoeste 8 Sudoeste 0 -- -- 79
2020-11-21 01:00:00 -0.9 2 Sudoeste 9 Norte 0 -- -- 77
2020-11-21 00:00:00 -0.1 3 Sur 12 Oeste 0 -- -- 74
2020-11-20 23:00:00 0.4 5 Sudeste 8 Sur 0 -- -- 74
2020-11-20 22:00:00 1.3 5 Oeste 8 Oeste 0 -- -- 68
2020-11-20 21:00:00 2.7 3 Oeste 8 Noroeste 0 -- -- 63
2020-11-20 20:00:00 3.8 3 Oeste 10 Oeste 0 -- -- 59
2020-11-20 19:00:00 5.6 4 Oeste 11 Oeste 0 -- -- 52
2020-11-20 18:00:00 8.3 4 Oeste 15 Sudeste 0 -- -- 45
2020-11-20 17:00:00 10.9 4 Noroeste 27 Noroeste 0 -- -- 36
2020-11-20 16:00:00 12.5 8 Noroeste 34 Norte 0 -- -- 34
2020-11-20 15:00:00 12.9 20 Noroeste 36 Noroeste 0 -- -- 31
2020-11-20 14:00:00 12.7 17 Noroeste 33 Noroeste 0 -- -- 31
2020-11-20 13:00:00 11.3 17 Norte 32 Oeste 0 -- -- 31
2020-11-20 12:00:00 9.9 16 Norte 37 Noroeste 0 -- -- 35
2020-11-20 11:00:00 8.9 24 Noroeste 36 Noroeste 0 -- -- 35
2020-11-20 10:00:00 7.8 14 Noroeste 31 Noroeste 0 -- -- 41
2020-11-20 09:00:00 1.2 3 Noroeste 8 Noroeste 0 -- -- 88
2020-11-20 08:00:00 -0.5 3 Sudeste 9 Sur 0 -- -- 91
2020-11-20 07:00:00 -0.2 4 Oeste 9 Norte 0 -- -- 92
2020-11-20 06:00:00 0.8 2 Noroeste 8 Sur 0 -- -- 89
2020-11-20 05:00:00 1.8 2 Noroeste 9 Noroeste 0 -- -- 87
2020-11-20 04:00:00 3.2 2 Oeste 14 Sur 0 -- -- 84
2020-11-20 03:00:00 4.9 5 Este 17 Noroeste 0 -- -- 80
2020-11-20 02:00:00 3.8 2 Oeste 13 Oeste 0 -- -- 91
2020-11-20 01:00:00 5.2 5 Sur 12 Sur 0 -- -- 91
2020-11-20 00:00:00 6.9 3 Oeste 9 Norte 0 -- -- 87
2020-11-19 23:00:00 8.7 6 Norte 16 Norte 0 -- -- 84
2020-11-19 22:00:00 9.7 8 Norte 15 Norte 0 -- -- 83
2020-11-19 21:00:00 10.4 8 Norte 24 Noroeste 0 -- -- 81
2020-11-19 20:00:00 11 8 Noroeste 19 Noroeste 0 -- -- 82
2020-11-19 19:00:00 11.3 10 Noroeste 24 Noroeste 0 -- -- 81
2020-11-19 18:00:00 12.4 8 Noroeste 17 Noroeste 0 -- -- 76
2020-11-19 17:00:00 14.1 8 Norte 25 Noroeste 0 -- -- 73
2020-11-19 16:00:00 15.9 14 Norte 30 Noroeste 0 -- -- 60
2020-11-19 15:00:00 16.5 11 Norte 28 Norte 0 -- -- 58
2020-11-19 14:00:00 16.1 15 Noroeste 31 Noroeste 0 -- -- 61
2020-11-19 13:00:00 15.7 22 Noroeste 42 Norte 0 -- -- 61
2020-11-19 12:00:00 15.7 21 Noroeste 40 Noroeste 0 -- -- 60
2020-11-19 11:00:00 14.6 23 Noroeste 40 Noroeste 0 -- -- 63
2020-11-19 10:00:00 10 11 Norte 24 Noroeste 0 -- -- 78
2020-11-19 09:00:00 3.2 0 Calma 8 Oeste 0 -- -- 88
2020-11-19 08:00:00 2 0 Calma 12 Noroeste 0 -- -- 88
2020-11-19 07:00:00 2.5 4 Oeste 6 Noroeste 0 -- -- 87
2020-11-19 06:00:00 2.7 3 Sudoeste 8 Oeste 0 -- -- 85
2020-11-19 05:00:00 3.5 2 Noroeste 6 Oeste 0 -- -- 82
2020-11-19 04:00:00 3.9 0 Calma 6 Oeste 0 -- -- 81
2020-11-19 03:00:00 4.7 0 Calma 7 Noroeste 0 -- -- 77
2020-11-19 02:00:00 5.4 2 Este 8 Oeste 0 -- -- 76
2020-11-19 01:00:00 5.5 3 Sur 8 Sudeste 0 -- -- 77
2020-11-19 00:00:00 6 2 Oeste 7 Oeste 0 -- -- 76
2020-11-18 23:00:00 6.4 0 Calma 6 Noroeste 0 -- -- 75
2020-11-18 22:00:00 7.6 4 Noroeste 8 Sudeste 0 -- -- 72
2020-11-18 21:00:00 8.9 4 Noroeste 9 Sudeste 0 -- -- 67
2020-11-18 20:00:00 10.2 3 Sudeste 9 Sur 0 -- -- 63
2020-11-18 19:00:00 12 0 Calma 9 Sudeste 0 -- -- 58
2020-11-18 18:00:00 14.5 4 Oeste 10 Noroeste 0 -- -- 52
2020-11-18 17:00:00 18.4 5 Noroeste 26 Noroeste 0 -- -- 38
2020-11-18 16:00:00 20.4 10 Noroeste 31 Norte 0 -- -- 33
2020-11-18 15:00:00 21.1 12 Norte 24 Noroeste 0 -- -- 31
2020-11-18 14:00:00 20.5 4 Noroeste 17 Nordeste 0 -- -- 37
2020-11-18 13:00:00 19.9 9 Norte 18 Norte 0 -- -- 38
2020-11-18 12:00:00 17.1 4 Sudeste 13 Este 0 -- -- 49
2020-11-18 11:00:00 12.4 6 Este 15 Sudeste 0 -- -- 61
2020-11-18 10:00:00 8.4 6 Sudeste 22 Sudeste 0 -- -- 72
2020-11-18 09:00:00 4.9 8 Sudeste 21 Sudeste 0 -- -- 82
2020-11-18 08:00:00 3.5 10 Sudeste 27 Este 0 -- -- 86
2020-11-18 07:00:00 4 12 Sudeste 22 Sudeste 0 -- -- 85
2020-11-18 06:00:00 3.9 9 Sudeste 22 Este 0 -- -- 87
2020-11-18 05:00:00 4.5 13 Sudeste 25 Sudeste 0 -- -- 86
2020-11-18 04:00:00 4.7 10 Sudeste 26 Este 0 -- -- 87
2020-11-18 03:00:00 5 11 Sudeste 22 Este 0 -- -- 87
2020-11-18 02:00:00 5.6 11 Sudeste 23 Sudeste 0 -- -- 87
2020-11-18 01:00:00 5.8 4 Sudeste 17 Sudeste 0 -- -- 86
2020-11-18 00:00:00 6.2 6 Este 18 Sudeste 0 -- -- 85
2020-11-17 23:00:00 7 12 Sudeste 20 Sudeste 0 -- -- 83
2020-11-17 22:00:00 7.7 4 Sur 15 Sudeste 0 -- -- 80
2020-11-17 21:00:00 8.2 4 Sur 14 Sudeste 0 -- -- 77
2020-11-17 20:00:00 9.2 0 Calma 5 Este 0 -- -- 73
2020-11-17 19:00:00 10.6 0 Calma 5 Oeste 0 -- -- 68
2020-11-17 18:00:00 12.5 0 Calma 7 Sur 0 -- -- 63
2020-11-17 17:00:00 16 5 Sur 17 Sudeste 0 -- -- 52
2020-11-17 16:00:00 18.3 7 Nordeste 13 Nordeste 0 -- -- 47
2020-11-17 15:00:00 18.2 6 Norte 14 Norte 0 -- -- 48
2020-11-17 14:00:00 18.1 6 Norte 11 Norte 0 -- -- 48
2020-11-17 13:00:00 17 3 Nordeste 6 Sudeste 0 -- -- 46
2020-11-17 12:00:00 15 4 Sudeste 9 Este 0 -- -- 54
2020-11-17 11:00:00 11 6 Sudeste 12 Sudeste 0 -- -- 71
2020-11-17 10:00:00 7.2 4 Sudeste 19 Este 0 -- -- 82
2020-11-17 09:00:00 3.6 13 Sudeste 21 Este 0 -- -- 94
2020-11-17 08:00:00 1.6 3 Norte 8 Sudeste 0 -- -- 95
2020-11-17 07:00:00 2.3 8 Sudeste 14 Sudeste 0 -- -- 96
2020-11-17 06:00:00 2.5 3 Sur 9 Noroeste 0 -- -- 96
2020-11-17 05:00:00 3 2 Sudeste 18 Sudeste 0 -- -- 93
2020-11-17 04:00:00 3.7 5 Sur 15 Este 0 -- -- 95
2020-11-17 03:00:00 4.6 8 Sudeste 18 Sudeste 0 -- -- 94
2020-11-17 02:00:00 4.9 13 Sudeste 20 Sudeste 0 -- -- 95
2020-11-17 01:00:00 4.6 0 Calma 10 Sudeste 0 -- -- 94
2020-11-17 00:00:00 5.1 4 Noroeste 9 Oeste 0 -- -- 94
2020-11-16 23:00:00 5.8 2 Sudoeste 9 Oeste 0 -- -- 93
2020-11-16 22:00:00 6.4 3 Sudeste 7 Sur 0 -- -- 89
2020-11-16 21:00:00 7.6 5 Sudeste 8 Oeste 0 -- -- 88
2020-11-16 20:00:00 9 4 Sur 11 Oeste 0 -- -- 85
2020-11-16 19:00:00 11.2 4 Noroeste 12 Nordeste 0 -- -- 78
2020-11-16 18:00:00 13.1 2 Norte 17 Noroeste 0 -- -- 68
2020-11-16 17:00:00 14.9 10 Noroeste 23 Noroeste 0 -- -- 63
2020-11-16 16:00:00 16.5 7 Norte 17 Norte 0 -- -- 56
2020-11-16 15:00:00 16.9 8 Oeste 19 Noroeste 0 -- -- 54
2020-11-16 14:00:00 16.2 10 Oeste 19 Noroeste 0 -- -- 56
2020-11-16 13:00:00 14.1 11 Noroeste 22 Noroeste 0 -- -- 69
2020-11-16 12:00:00 13.6 15 Noroeste 28 Noroeste 0 -- -- 71
2020-11-16 11:00:00 12.3 13 Noroeste 27 Noroeste 0 -- -- 81
2020-11-16 10:00:00 11.7 14 Noroeste 29 Noroeste 0 -- -- 86
2020-11-16 09:00:00 9.4 4 Norte 9 Norte 0 -- -- 92
2020-11-16 08:00:00 9.5 2 Noroeste 10 Oeste 0 -- -- 88
2020-11-16 07:00:00 10.7 0 Calma 10 Sudoeste 0 -- -- 85
2020-11-16 06:00:00 11.6 2 Sur 17 Oeste 0 -- -- 82
2020-11-16 05:00:00 10.6 0 Calma 12 Sudoeste 0 -- -- 86
2020-11-16 04:00:00 11.5 4 Noroeste 7 Noroeste 0 -- -- 84
2020-11-16 03:00:00 12.2 3 Sur 10 Sur 0 -- -- 79
2020-11-16 02:00:00 13.2 5 Sudoeste 22 Sudoeste 0 -- -- 77
2020-11-16 01:00:00 11.8 0 Calma 22 Oeste 0 -- -- 81
2020-11-16 00:00:00 11.9 3 Noroeste 8 Oeste 0 -- -- 79
2020-11-15 23:00:00 13.8 6 Sudoeste 22 Sudoeste 0 -- -- 73
2020-11-15 22:00:00 14 8 Sudoeste 22 Sur 0 -- -- 73
2020-11-15 21:00:00 13.8 4 Nordeste 18 Sudoeste 0 -- -- 73
2020-11-15 20:00:00 14 7 Oeste 18 Sudoeste 0 -- -- 72
2020-11-15 19:00:00 14 3 Sur 20 Sudoeste 0 -- -- 74
2020-11-15 18:00:00 14.5 4 Sudoeste 17 Sudoeste 0 -- -- 71
2020-11-15 17:00:00 15.1 8 Sudoeste 35 Sudoeste 0 -- -- 70
2020-11-15 16:00:00 15.3 8 Sudoeste 27 Oeste 0 -- -- 69
2020-11-15 15:00:00 15.3 9 Oeste 28 Sudoeste 0 -- -- 70
2020-11-15 14:00:00 16 15 Sudoeste 32 Sudoeste 0 -- -- 67
2020-11-15 13:00:00 16 15 Sur 32 Sur 0 -- -- 68
2020-11-15 12:00:00 15.1 16 Sur 29 Sudoeste 0 -- -- 69
2020-11-15 11:00:00 13.9 13 Sudoeste 29 Oeste 0 -- -- 73
2020-11-15 10:00:00 11.9 9 Sudoeste 16 Sudoeste 0 -- -- 85
2020-11-15 09:00:00 6.6 0 Calma 8 Norte 0 -- -- 97
2020-11-15 08:00:00 5.3 4 Oeste 9 Oeste 0 -- -- 96
2020-11-15 07:00:00 6.4 0 Calma 10 Oeste 0 -- -- 96
2020-11-15 06:00:00 6.6 6 Sudoeste 12 Oeste 0 -- -- 96
2020-11-15 05:00:00 6.9 2 Sur 15 Sudoeste 0 -- -- 91
2020-11-15 04:00:00 8.6 10 Sudoeste 18 Sudoeste 0 -- -- 95
2020-11-15 03:00:00 5.6 2 Sudoeste 6 Sudeste 0 -- -- 96
2020-11-15 02:00:00 6.1 3 Sudeste 5 Norte 0 -- -- 96
2020-11-15 01:00:00 7.1 0 Calma 6 Sudoeste 0 -- -- 95
2020-11-15 00:00:00 8.1 2 Noroeste 5 Norte 0 -- -- 93
2020-11-14 23:00:00 9.7 0 Calma 8 Sur 0 -- -- 87
2020-11-14 22:00:00 9.8 0 Calma 9 Sudoeste 0 -- -- 89
2020-11-14 21:00:00 10.4 0 Calma 11 Sur 0 -- -- 88
2020-11-14 20:00:00 10.5 4 Sur 12 Sudeste 0 -- -- 89
2020-11-14 19:00:00 10.8 0 Calma 6 Sudoeste 0 -- -- 89
2020-11-14 18:00:00 11.4 4 Sur 10 Sudeste 0 -- -- 87
2020-11-14 17:00:00 11.9 6 Sudeste 17 Sur 0 -- -- 84
2020-11-14 16:00:00 13.3 6 Sudoeste 14 Oeste 0 -- -- 74
2020-11-14 15:00:00 12.3 5 Norte 13 Norte 0 -- -- 86
2020-11-14 14:00:00 12.2 5 Norte 13 Norte 0 -- -- 85
2020-11-14 13:00:00 12.1 9 Norte 16 Norte 0 -- -- 79
2020-11-14 12:00:00 12.4 5 Este 11 Este 0 -- -- 77
2020-11-14 11:00:00 9.8 2 Nordeste 8 Este 0 -- -- 85
2020-11-14 10:00:00 8 6 Este 12 Sudeste 0 -- -- 89
2020-11-14 09:00:00 5.9 7 Sudeste 12 Sudeste 0 -- -- 94
2020-11-14 08:00:00 5.1 4 Sur 5 Sur 0 -- -- 94
2020-11-14 07:00:00 4.5 0 Calma 5 Norte 0 -- -- 92
2020-11-14 06:00:00 5.1 2 Oeste 4 Noroeste 0 -- -- 91
2020-11-14 05:00:00 5.3 2 Sudeste 5 Oeste 0 -- -- 90
2020-11-14 04:00:00 5.3 0 Calma 5 Oeste 0 -- -- 89
2020-11-14 03:00:00 5.5 3 Noroeste 6 Noroeste 0 -- -- 88
2020-11-14 02:00:00 5.4 0 Calma 5 Sudeste 0 -- -- 88
2020-11-14 01:00:00 5.8 4 Sudeste 13 Este 0 -- -- 85
2020-11-14 00:00:00 6.5 8 Este 14 Sudoeste 0 -- -- 83
2020-11-13 23:00:00 7.7 13 Sudoeste 15 Sudoeste 0 -- -- 81
2020-11-13 22:00:00 7.5 5 Sudoeste 14 Sudoeste 0 -- -- 79
2020-11-13 21:00:00 8.5 0 Calma 16 Sudoeste 0 -- -- 74
2020-11-13 20:00:00 9.2 9 Sudoeste 15 Sudoeste 0 -- -- 72
2020-11-13 19:00:00 10.5 10 Sudoeste 19 Sur 0 -- -- 66
2020-11-13 18:00:00 12 8 Sudoeste 16 Sur 0 -- -- 62
2020-11-13 17:00:00 13.7 9 Sudeste 20 Sudeste 0 -- -- 57
2020-11-13 16:00:00 15.5 9 Sudeste 21 Sudeste 0 -- -- 52
2020-11-13 15:00:00 14.9 9 Sudeste 21 Sudeste 0 -- -- 51
2020-11-13 14:00:00 15.1 10 Sudeste 17 Sudeste 0 -- -- 51
2020-11-13 13:00:00 14.4 8 Sudeste 18 Sudeste 0 -- -- 54
2020-11-13 12:00:00 13.4 9 Sudeste 21 Sudeste 0 -- -- 61
2020-11-13 11:00:00 12.4 6 Sur 19 Sudeste 0 -- -- 67
2020-11-13 10:00:00 9.2 11 Sudeste 23 Sudeste 0 -- -- 75
2020-11-13 09:00:00 5.4 2 Sudeste 9 Sudeste 0 -- -- 85
2020-11-13 08:00:00 4.4 4 Sur 9 Sudeste 0 -- -- 89
2020-11-13 07:00:00 3.9 0 Calma 15 Sur 0 -- -- 87
2020-11-13 06:00:00 4.3 7 Sudeste 19 Sudeste 0 -- -- 84
2020-11-13 05:00:00 4.3 16 Sudeste 21 Sudeste 0 -- -- 82
2020-11-13 04:00:00 4.4 7 Sudeste 17 Sudeste 0 -- -- 82
2020-11-13 03:00:00 5.1 12 Sudeste 21 Sudeste 0 -- -- 79
2020-11-13 02:00:00 4.7 5 Sur 17 Sudeste 0 -- -- 80
2020-11-13 01:00:00 4.6 7 Este 18 Este 0 -- -- 80
2020-11-13 00:00:00 4.6 4 Noroeste 16 Este 0 -- -- 81
2020-11-12 23:00:00 4.7 3 Oeste 13 Sudeste 0 -- -- 81
2020-11-12 22:00:00 5.9 6 Sudoeste 13 Sur 0 -- -- 75
2020-11-12 21:00:00 8.2 4 Sur 19 Sudoeste 0 -- -- 66
2020-11-12 20:00:00 9.3 8 Sudoeste 17 Sudoeste 0 -- -- 63
2020-11-12 19:00:00 10.5 10 Sur 16 Sur 0 -- -- 61
2020-11-12 18:00:00 11.5 4 Sur 10 Sur 0 -- -- 58
2020-11-12 17:00:00 13.5 3 Oeste 13 Nordeste 0 -- -- 57
2020-11-12 16:00:00 14.2 7 Norte 13 Norte 0 -- -- 51
2020-11-12 15:00:00 14.1 6 Norte 11 Norte 0 -- -- 50
2020-11-12 14:00:00 14.3 3 Este 8 Nordeste 0 -- -- 51
2020-11-12 13:00:00 12.8 0 Calma 7 Este 0 -- -- 55
2020-11-12 12:00:00 11.1 3 Este 13 Este 0 -- -- 63
2020-11-12 11:00:00 7.8 8 Este 15 Este 0 -- -- 72
2020-11-12 10:00:00 5.5 10 Este 15 Este 0 -- -- 80
2020-11-12 09:00:00 3.5 4 Sudeste 17 Este 0 -- -- 87
2020-11-12 08:00:00 2.6 5 Este 11 Sudeste 0 -- -- 89
2020-11-12 07:00:00 2.5 6 Este 16 Sudeste 0 -- -- 90
2020-11-12 06:00:00 2.7 5 Sudeste 19 Este 0 -- -- 90
2020-11-12 05:00:00 2.9 12 Este 21 Sudeste 0 -- -- 90
2020-11-12 04:00:00 3.1 9 Sudeste 17 Este 0 -- -- 88
2020-11-12 03:00:00 3.4 6 Sudeste 21 Sudeste 0 -- -- 89
2020-11-12 02:00:00 4.2 9 Sudeste 19 Este 0 -- -- 86
2020-11-12 01:00:00 4.2 5 Este 16 Este 0 -- -- 87
2020-11-12 00:00:00 4.8 8 Sudeste 16 Sudeste 0 -- -- 84
2020-11-11 23:00:00 4.7 4 Sur 17 Sudeste 0 -- -- 84
2020-11-11 22:00:00 5.9 8 Sudeste 18 Sudeste 0 -- -- 79
2020-11-11 21:00:00 7.2 8 Sudeste 16 Sur 0 -- -- 74
2020-11-11 20:00:00 9 9 Sur 17 Sudoeste 0 -- -- 66
2020-11-11 19:00:00 10.6 9 Sudoeste 17 Sudoeste 0 -- -- 62
2020-11-11 18:00:00 11.7 12 Sudoeste 15 Sudoeste 0 -- -- 58
2020-11-11 17:00:00 14.2 6 Sudoeste 14 Sudoeste 0 -- -- 47
2020-11-11 16:00:00 16.2 9 Sudoeste 17 Sur 0 -- -- 43
2020-11-11 15:00:00 16.2 10 Sur 24 Sur 0 -- -- 45
2020-11-11 14:00:00 15.8 14 Sudeste 29 Sudeste 0 -- -- 50
2020-11-11 13:00:00 15 15 Sudeste 28 Sudeste 0 -- -- 50
2020-11-11 12:00:00 14.1 10 Sudeste 18 Sudeste 0 -- -- 58
2020-11-11 11:00:00 10.4 9 Sudeste 16 Sudeste 0 -- -- 75
2020-11-11 10:00:00 5.7 10 Este 21 Sudeste 0 -- -- 83
2020-11-11 09:00:00 2.9 13 Sudeste 21 Sudeste 0 -- -- 88
2020-11-11 08:00:00 0.7 8 Sudeste 16 Sudeste 0 -- -- 94
2020-11-11 07:00:00 1 9 Sudeste 24 Sudeste 0 -- -- 93
2020-11-11 06:00:00 1.1 15 Sudeste 24 Sudeste 0 -- -- 94
2020-11-11 05:00:00 1.6 10 Sudeste 24 Sudeste 0 -- -- 94
2020-11-11 04:00:00 1.9 7 Sudeste 14 Este 0 -- -- 94
2020-11-11 03:00:00 2.5 10 Sudeste 19 Sudeste 0 -- -- 92
2020-11-11 02:00:00 2.8 9 Sudeste 17 Este 0 -- -- 91
2020-11-11 01:00:00 3.2 10 Sudeste 18 Sudeste 0 -- -- 92
2020-11-11 00:00:00 3.7 5 Sudeste 12 Sudeste 0 -- -- 91
2020-11-10 23:00:00 4 0 Calma 7 Sur 0 -- -- 91
2020-11-10 22:00:00 4.7 0 Calma 8 Sudeste 0 -- -- 88
2020-11-10 21:00:00 5.6 4 Sur 7 Sudeste 0 -- -- 85
2020-11-10 20:00:00 6.5 0 Calma 5 Este 0 -- -- 82
2020-11-10 19:00:00 8.2 3 Noroeste 6 Oeste 0 -- -- 77
2020-11-10 18:00:00 9.6 4 Noroeste 13 Noroeste 0 -- -- 74
2020-11-10 17:00:00 12.1 7 Norte 17 Norte 0 -- -- 67
2020-11-10 16:00:00 13.6 7 Nordeste 15 Norte 0 -- -- 60
2020-11-10 15:00:00 13.9 8 Este 15 Norte 0 -- -- 61
2020-11-10 14:00:00 13.7 6 Nordeste 12 Nordeste 0 -- -- 59
2020-11-10 13:00:00 12.6 4 Sudoeste 14 Norte 0 -- -- 60
2020-11-10 12:00:00 11.7 5 Nordeste 13 Nordeste 0 -- -- 71
2020-11-10 11:00:00 10.6 4 Sudeste 11 Sudeste 0 -- -- 75
2020-11-10 10:00:00 6.6 6 Sudeste 19 Sudeste 0 -- -- 84
2020-11-10 09:00:00 3.2 4 Sudeste 8 Oeste 0 -- -- 97
2020-11-10 08:00:00 1 2 Oeste 7 Nordeste 0 -- -- 96
2020-11-10 07:00:00 1.4 0 Calma 9 Oeste 0 -- -- 95
2020-11-10 06:00:00 2.1 0 Calma 14 Este 0 -- -- 94
2020-11-10 05:00:00 3.1 7 Sudeste 14 Sudeste 0 -- -- 94
2020-11-10 04:00:00 3 0 Calma 9 Este 0 -- -- 93
2020-11-10 03:00:00 4.1 4 Sudeste 13 Este 0 -- -- 92
2020-11-10 02:00:00 4.8 5 Sudeste 14 Sudeste 0 -- -- 91
2020-11-10 01:00:00 5.4 5 Sudeste 16 Sudeste 0 -- -- 90
2020-11-10 00:00:00 6.2 5 Sudeste 12 Sudeste 0 -- -- 89
2020-11-09 23:00:00 7.1 3 Noroeste 8 Oeste 0 -- -- 85
2020-11-09 22:00:00 8.7 0 Calma 12 Este 0 -- -- 81
2020-11-09 21:00:00 9.1 0 Calma 9 Sudeste 0 -- -- 81
2020-11-09 20:00:00 9.2 0 Calma 13 Sudoeste 0 -- -- 80
2020-11-09 19:00:00 10.2 4 Sudoeste 14 Oeste 0 -- -- 74
2020-11-09 18:00:00 12.2 4 Noroeste 13 Oeste 0 -- -- 65
2020-11-09 17:00:00 13.4 4 Sudoeste 13 Oeste 0 -- -- 60
2020-11-09 16:00:00 13.7 8 Oeste 17 Sudoeste 0 -- -- 59
2020-11-09 15:00:00 13.7 10 Sudoeste 28 Sudoeste 0 -- -- 62
2020-11-09 14:00:00 14.1 13 Sur 22 Sur 0 -- -- 61
2020-11-09 13:00:00 13.7 13 Sur 26 Sur 0 -- -- 63
2020-11-09 12:00:00 13.2 10 Sur 22 Sudoeste 0 -- -- 68
2020-11-09 11:00:00 9.8 2 Sudeste 5 Sudeste 0 -- -- 82
2020-11-09 10:00:00 6.7 2 Nordeste 6 Sur 0 -- -- 90
2020-11-09 09:00:00 3.2 4 Sudeste 9 Oeste 0 -- -- 97
2020-11-09 08:00:00 1.9 4 Sudeste 9 Noroeste 0 -- -- 96
2020-11-09 07:00:00 2.5 3 Noroeste 14 Sudeste 0 -- -- 94
2020-11-09 06:00:00 2.4 6 Sudeste 12 Sudeste 0 -- -- 96
2020-11-09 05:00:00 2.3 0 Calma 8 Oeste 0 -- -- 95
2020-11-09 04:00:00 2.6 2 Noroeste 8 Oeste 0 -- -- 95
2020-11-09 03:00:00 2.7 3 Sur 7 Sudeste 0 -- -- 94
2020-11-09 02:00:00 3.1 0 Calma 9 Este 0 -- -- 94
2020-11-09 01:00:00 3.8 5 Sudeste 9 Sudeste 0 -- -- 92
2020-11-09 00:00:00 4.4 0 Calma 5 Oeste 0 -- -- 91
2020-11-08 23:00:00 4.5 3 Sur 6 Sur 0 -- -- 90
2020-11-08 22:00:00 5.3 2 Oeste 6 Noroeste 0 -- -- 87
2020-11-08 21:00:00 6.5 0 Calma 11 Sudoeste 0 -- -- 81
2020-11-08 20:00:00 8.6 6 Sudoeste 14 Sudoeste 0 -- -- 73
2020-11-08 19:00:00 10.2 5 Sudoeste 15 Sudeste 0 -- -- 68
2020-11-08 18:00:00 12.1 8 Sur 22 Sudoeste 0 -- -- 60
2020-11-08 17:00:00 13.5 10 Sur 26 Sur 0 -- -- 55
2020-11-08 16:00:00 15.6 10 Sur 24 Sudeste 0 -- -- 45
2020-11-08 15:00:00 16 12 Sur 26 Sur 0 -- -- 44
2020-11-08 14:00:00 16 13 Sudeste 22 Sudeste 0 -- -- 42
2020-11-08 13:00:00 16.4 7 Sudoeste 18 Sudeste 0 -- -- 41
2020-11-08 12:00:00 14.7 10 Sudeste 22 Este 0 -- -- 52
2020-11-08 11:00:00 11.7 13 Sudeste 18 Sudeste 0 -- -- 69
2020-11-08 10:00:00 7.6 8 Este 18 Este 0 -- -- 86
2020-11-08 09:00:00 4.5 12 Este 18 Este 0 -- -- 94
2020-11-08 08:00:00 2.7 0 Calma 18 Sudeste 0 -- -- 96
2020-11-08 07:00:00 2.6 3 Oeste 8 Sur 0 -- -- 95
2020-11-08 06:00:00 3.2 0 Calma 8 Sudeste 0 -- -- 94
2020-11-08 05:00:00 4.4 6 Sur 10 Sur 0 -- -- 92
2020-11-08 04:00:00 4.9 3 Sudoeste 8 Sur 0 -- -- 92
2020-11-08 03:00:00 5.6 2 Oeste 8 Sur 0 -- -- 89
2020-11-08 02:00:00 7.1 2 Oeste 13 Sudoeste 0 -- -- 87
2020-11-08 01:00:00 8.1 0 Calma 5 Oeste 0 -- -- 92
2020-11-08 00:00:00 8.3 0 Calma 4 Noroeste 0 -- -- 92
2020-11-07 23:00:00 8.2 0 Calma 5 Este 0 -- -- 91
2020-11-07 22:00:00 7.8 0 Calma 6 Norte 0 -- -- 91
2020-11-07 21:00:00 7.4 0 Calma 8 Oeste 0 -- -- 90
2020-11-07 20:00:00 7.3 6 Oeste 15 Sur 0 -- -- 87
2020-11-07 19:00:00 9.2 5 Sudoeste 13 Sur 0 -- -- 82
2020-11-07 18:00:00 10 5 Sudoeste 20 Sur 0 -- -- 80
2020-11-07 17:00:00 11 12 Sur 23 Sur 0 -- -- 76
2020-11-07 16:00:00 11.8 15 Sur 34 Sudoeste 0 -- -- 73
2020-11-07 15:00:00 11.9 11 Sur 24 Sur 0 -- -- 74
2020-11-07 14:00:00 11.5 8 Sudeste 20 Sudeste 0 -- -- 78
2020-11-07 13:00:00 11.1 9 Sur 26 Sur 0.2 -- -- 80
2020-11-07 12:00:00 10.7 14 Sur 34 Sudeste 0 -- -- 78
2020-11-07 11:00:00 11.1 11 Sur 27 Sur 0 -- -- 75
2020-11-07 10:00:00 10 4 Sudeste 14 Sur 0 -- -- 92
2020-11-07 09:00:00 9 5 Oeste 10 Norte 0 -- -- 95
2020-11-07 08:00:00 9.1 5 Oeste 11 Sudoeste 0.6 -- -- 92
2020-11-07 07:00:00 9.3 0 Calma 20 Sur 0.4 -- -- 90
2020-11-07 06:00:00 9 8 Sur 23 Sur 0.8 -- -- 91
2020-11-07 05:00:00 10.2 16 Sudoeste 48 Sur 3.6 -- -- 85
2020-11-07 04:00:00 11.2 2 Sudeste 10 Sudeste 0.6 -- -- 94
2020-11-07 03:00:00 10.3 3 Sudoeste 15 Noroeste 0 -- -- 95
2020-11-07 02:00:00 10 3 Noroeste 12 Sur 0 -- -- 93
2020-11-07 01:00:00 9.9 2 Noroeste 8 Noroeste 0 -- -- 92
2020-11-07 00:00:00 10.2 4 Sur 8 Sur 0 -- -- 90
2020-11-06 23:00:00 10.7 4 Noroeste 12 Norte 0 -- -- 88
2020-11-06 22:00:00 10.9 4 Sur 12 Noroeste 0 -- -- 86
2020-11-06 21:00:00 10.6 5 Noroeste 13 Sudoeste 0 -- -- 88
2020-11-06 20:00:00 11.2 5 Oeste 13 Sudoeste 0 -- -- 86
2020-11-06 19:00:00 12.3 7 Noroeste 12 Norte 0 -- -- 81
2020-11-06 18:00:00 13.8 5 Sudeste 18 Este 0 -- -- 75
2020-11-06 17:00:00 14.9 6 Este 16 Nordeste 0 -- -- 72
2020-11-06 16:00:00 15.8 9 Este 28 Este 0 -- -- 70
2020-11-06 15:00:00 15.6 12 Sudeste 37 Este 0 -- -- 72
2020-11-06 14:00:00 15.9 19 Sudeste 32 Este 0 -- -- 71
2020-11-06 13:00:00 16.4 14 Sudeste 33 Sudeste 0 -- -- 73
2020-11-06 12:00:00 15.5 15 Sudeste 38 Este 0 -- -- 76
2020-11-06 11:00:00 14 19 Este 34 Este 0 -- -- 84
2020-11-06 10:00:00 9.8 6 Oeste 14 Noroeste 0 -- -- 100
2020-11-06 09:00:00 6.5 0 Calma 5 Sudeste 0 -- -- 100
2020-11-06 08:00:00 6.2 3 Noroeste 4 Sudoeste 0 -- -- 98
2020-11-06 07:00:00 6.7 3 Oeste 8 Sur 0 -- -- 99
2020-11-06 06:00:00 7.4 6 Oeste 10 Sudeste 0 -- -- 98
2020-11-06 05:00:00 7.6 3 Norte 5 Norte 0 -- -- 98
2020-11-06 04:00:00 8 4 Sudoeste 8 Sur 0 -- -- 98
2020-11-06 03:00:00 8.2 2 Oeste 6 Oeste 0 -- -- 97
2020-11-06 02:00:00 8.7 3 Sur 7 Sur 0 -- -- 97
2020-11-06 01:00:00 8.8 0 Calma 7 Sur 0 -- -- 97
2020-11-06 00:00:00 8.9 4 Norte 7 Oeste 0 -- -- 97
2020-11-05 23:00:00 9.2 3 Oeste 9 Noroeste 0 -- -- 96
2020-11-05 22:00:00 9.5 4 Norte 12 Oeste 0 -- -- 94
2020-11-05 21:00:00 9.9 6 Este 24 Este 0 -- -- 93
2020-11-05 20:00:00 10.1 13 Nordeste 36 Sudeste 3 -- -- 92
2020-11-05 19:00:00 10.1 6 Este 23 Este 1.2 -- -- 93
2020-11-05 18:00:00 10.1 3 Este 20 Este 0.8 -- -- 93
2020-11-05 17:00:00 10.1 6 Este 17 Sudeste 3 -- -- 93
2020-11-05 16:00:00 10.2 4 Sudeste 34 Este 1.4 -- -- 93
2020-11-05 15:00:00 10.3 11 Este 29 Este 2.2 -- -- 92
2020-11-05 14:00:00 10.2 7 Sudeste 36 Este 2.8 -- -- 92
2020-11-05 13:00:00 11 21 Este 38 Este 0 -- -- 85
2020-11-05 12:00:00 10.8 11 Este 26 Este 0 -- -- 86
2020-11-05 11:00:00 9.7 13 Este 39 Este 0 -- -- 89
2020-11-05 10:00:00 8.7 12 Nordeste 28 Este 0 -- -- 91
2020-11-05 09:00:00 7.7 7 Norte 15 Noroeste 0 -- -- 93
2020-11-05 08:00:00 7.5 4 Norte 17 Norte 0 -- -- 93
2020-11-05 07:00:00 7.3 4 Noroeste 12 Noroeste 0 -- -- 94
2020-11-05 06:00:00 7.2 7 Norte 12 Noroeste 0 -- -- 93
2020-11-05 05:00:00 7.2 9 Noroeste 14 Noroeste 0 -- -- 92
2020-11-05 04:00:00 7.1 3 Norte 14 Noroeste 0 -- -- 93
2020-11-05 03:00:00 7.1 7 Norte 13 Noroeste 0 -- -- 94
2020-11-05 02:00:00 6.9 5 Noroeste 18 Nordeste 0 -- -- 94
2020-11-05 01:00:00 6.3 8 Oeste 13 Oeste 0 -- -- 96
2020-11-05 00:00:00 6.1 7 Norte 12 Norte 0 -- -- 97
2020-11-04 23:00:00 5.9 6 Norte 14 Norte 0 -- -- 97
2020-11-04 22:00:00 5.9 7 Norte 13 Norte 0.4 -- -- 97
2020-11-04 21:00:00 5.9 5 Norte 9 Norte 0.2 -- -- 96
2020-11-04 20:00:00 5.9 4 Norte 8 Norte 0.2 -- -- 96
2020-11-04 19:00:00 5.8 3 Noroeste 6 Norte 0 -- -- 96
2020-11-04 18:00:00 5.8 3 Norte 6 Norte 0.4 -- -- 95
2020-11-04 17:00:00 5.7 4 Norte 10 Nordeste 0.8 -- -- 95
2020-11-04 16:00:00 5.5 7 Norte 13 Norte 0.2 -- -- 94
2020-11-04 15:00:00 5.4 4 Norte 13 Norte 0.4 -- -- 94
2020-11-04 14:00:00 5.3 3 Norte 8 Norte 0.6 -- -- 92
2020-11-04 13:00:00 5.1 4 Norte 9 Nordeste 0.2 -- -- 92
2020-11-04 12:00:00 4.6 8 Noroeste 12 Noroeste 0 -- -- 91
2020-11-04 11:00:00 4.5 6 Nordeste 14 Noroeste 0 -- -- 91
2020-11-04 10:00:00 4.1 5 Norte 13 Noroeste 0.2 -- -- 92
2020-11-04 09:00:00 3.9 2 Nordeste 10 Nordeste 0.6 -- -- 93
2020-11-04 08:00:00 4 3 Norte 9 Nordeste 0 -- -- 92
2020-11-04 07:00:00 4.4 5 Nordeste 10 Nordeste 0.2 -- -- 92
2020-11-04 06:00:00 4.3 2 Sur 7 Noroeste 0 -- -- 91
2020-11-04 05:00:00 4.3 3 Sudeste 10 Norte 0.4 -- -- 91
2020-11-04 04:00:00 4.4 4 Nordeste 18 Noroeste 0 -- -- 92
2020-11-04 03:00:00 4.5 6 Norte 22 Norte 1 -- -- 93
2020-11-04 02:00:00 5.1 9 Norte 18 Noroeste 0.8 -- -- 91
2020-11-04 01:00:00 5.9 7 Norte 12 Norte 0 -- -- 94
2020-11-04 00:00:00 6.6 0 Calma 5 Norte 0.2 -- -- 94
2020-11-03 23:00:00 6.5 0 Calma 12 Norte 1.4 -- -- 94
2020-11-03 22:00:00 6.7 3 Sur 10 Sudeste 1 -- -- 92
2020-11-03 21:00:00 6.8 5 Sur 12 Noroeste 0 -- -- 91
2020-11-03 20:00:00 6.8 4 Norte 10 Noroeste 0.2 -- -- 91
2020-11-03 19:00:00 6.9 6 Noroeste 15 Nordeste 0.2 -- -- 90
2020-11-03 18:00:00 7.5 8 Norte 29 Noroeste 0 -- -- 87
2020-11-03 17:00:00 8.3 13 Noroeste 35 Noroeste 0 -- -- 87
2020-11-03 16:00:00 9.1 19 Noroeste 38 Noroeste 0.6 -- -- 88
2020-11-03 15:00:00 10.5 11 Norte 18 Norte 1.8 -- -- 90
2020-11-03 14:00:00 11.9 8 Nordeste 15 Norte 0 -- -- 83
2020-11-03 13:00:00 11.3 13 Norte 28 Norte 0 -- -- 83
2020-11-03 12:00:00 12.8 18 Norte 27 Norte 0 -- -- 78
2020-11-03 11:00:00 13.6 4 Norte 8 Norte 0 -- -- 77
2020-11-03 10:00:00 10.9 0 Calma 6 Oeste 0 -- -- 78
2020-11-03 09:00:00 9.6 2 Sur 10 Sur 0 -- -- 81
2020-11-03 08:00:00 8.8 2 Sur 8 Sudeste 0 -- -- 82
2020-11-03 07:00:00 8.8 3 Sudoeste 6 Oeste 0 -- -- 78
2020-11-03 06:00:00 9.1 0 Calma 6 Sur 0 -- -- 76
2020-11-03 05:00:00 9.7 0 Calma 10 Sudeste 0 -- -- 73
2020-11-03 04:00:00 10.1 0 Calma 9 Sudeste 0 -- -- 70
2020-11-03 03:00:00 10.3 3 Sur 12 Este 0 -- -- 68
2020-11-03 02:00:00 10.6 7 Sudeste 15 Sudeste 0 -- -- 67
2020-11-03 01:00:00 10.5 5 Sudeste 8 Sudeste 0 -- -- 66
2020-11-03 00:00:00 10.7 0 Calma 8 Oeste 0 -- -- 64
2020-11-02 23:00:00 10.6 0 Calma 8 Este 0 -- -- 65
2020-11-02 22:00:00 11 0 Calma 6 Sudeste 0 -- -- 66
2020-11-02 21:00:00 12.5 3 Este 10 Sudeste 0 -- -- 62
2020-11-02 20:00:00 14.2 0 Calma 10 Sur 0 -- -- 54
2020-11-02 19:00:00 15.9 4 Sur 8 Sudeste 0 -- -- 45
2020-11-02 18:00:00 17.6 5 Noroeste 12 Noroeste 0 -- -- 39
2020-11-02 17:00:00 21.3 6 Norte 18 Noroeste 0 -- -- 30
2020-11-02 16:00:00 22.6 8 Norte 18 Norte 0 -- -- 26
2020-11-02 15:00:00 22.8 6 Nordeste 21 Nordeste 0 -- -- 27
2020-11-02 14:00:00 22.5 10 Nordeste 18 Norte 0 -- -- 29
2020-11-02 13:00:00 21.3 9 Norte 18 Nordeste 0 -- -- 31
2020-11-02 12:00:00 19.7 7 Norte 12 Norte 0 -- -- 36
2020-11-02 11:00:00 16.6 3 Nordeste 6 Norte 0 -- -- 44
2020-11-02 10:00:00 12.5 4 Sudeste 10 Este 0 -- -- 50
2020-11-02 09:00:00 7.3 3 Sur 17 Sudeste 0 -- -- 61
2020-11-02 08:00:00 3.7 3 Sur 10 Este 0 -- -- 69
2020-11-02 07:00:00 3.4 7 Sudeste 18 Sudeste 0 -- -- 70
2020-11-02 06:00:00 4 10 Sudeste 18 Sudeste 0 -- -- 69
2020-11-02 05:00:00 4.2 9 Sur 20 Sudeste 0 -- -- 67
2020-11-02 04:00:00 5.1 8 Sudeste 21 Sudeste 0 -- -- 65
2020-11-02 03:00:00 5.8 9 Sudeste 27 Sudeste 0 -- -- 64
2020-11-02 02:00:00 5.7 11 Sudeste 19 Sudeste 0 -- -- 66
2020-11-02 01:00:00 6.6 4 Este 19 Sudeste 0 -- -- 64
2020-11-02 00:00:00 7.5 9 Sudeste 18 Sudeste 0 -- -- 63
2020-11-01 23:00:00 8.2 3 Sur 14 Sudeste 0 -- -- 62
2020-11-01 22:00:00 9.7 6 Sudeste 17 Sudeste 0 -- -- 58
2020-11-01 21:00:00 11.5 7 Sudeste 16 Sudeste 0 -- -- 52
2020-11-01 20:00:00 13.5 6 Sudeste 11 Sudeste 0 -- -- 47
2020-11-01 19:00:00 14.7 2 Sur 6 Sudeste 0 -- -- 46
2020-11-01 18:00:00 17.1 4 Oeste 9 Sudoeste 0 -- -- 43
2020-11-01 17:00:00 20.9 3 Nordeste 17 Nordeste 0 -- -- 36
2020-11-01 16:00:00 21.7 9 Norte 20 Nordeste 0 -- -- 34
2020-11-01 15:00:00 23 9 Nordeste 18 Nordeste 0 -- -- 31
2020-11-01 14:00:00 23.1 4 Nordeste 12 Norte 0 -- -- 29
2020-11-01 13:00:00 21.4 5 Nordeste 18 Norte 0 -- -- 33
2020-11-01 12:00:00 20.5 5 Nordeste 15 Nordeste 0 -- -- 35
2020-11-01 11:00:00 15.5 3 Norte 14 Sudeste 0 -- -- 47
2020-11-01 10:00:00 11.7 9 Sudeste 26 Sudeste 0 -- -- 57
2020-11-01 09:00:00 7.2 14 Sudeste 25 Sudeste 0 -- -- 71
2020-11-01 08:00:00 3.7 4 Sudeste 21 Sudeste 0 -- -- 84
2020-11-01 07:00:00 4 9 Sudeste 21 Sudeste 0 -- -- 84
2020-11-01 06:00:00 4.7 9 Sudeste 20 Sudeste 0 -- -- 81
2020-11-01 05:00:00 5.2 6 Sudeste 21 Sudeste 0 -- -- 78
2020-11-01 04:00:00 5.7 8 Sudeste 20 Sudeste 0 -- -- 79
2020-11-01 03:00:00 6.4 6 Sudeste 22 Sudeste 0 -- -- 77
2020-11-01 02:00:00 6.6 8 Sudeste 19 Sudeste 0 -- -- 75
2020-11-01 01:00:00 7 9 Sudeste 19 Sudeste 0 -- -- 74
2020-11-01 00:00:00 7.7 2 Sudeste 20 Este 0 -- -- 68
2020-10-31 23:00:00 8.7 5 Sudeste 12 Sudeste 0 -- -- 66
2020-10-31 22:00:00 9.6 0 Calma 7 Sudeste 0 -- -- 61
2020-10-31 21:00:00 11.7 0 Calma 9 Sur 0 -- -- 55
2020-10-31 20:00:00 13.1 8 Sur 14 Sur 0 -- -- 52
2020-10-31 19:00:00 14.7 8 Oeste 15 Oeste 0 -- -- 46
2020-10-31 18:00:00 17.3 4 Oeste 11 Oeste 0 -- -- 40
2020-10-31 17:00:00 21.1 7 Oeste 14 Oeste 0 -- -- 30
2020-10-31 16:00:00 23.1 6 Oeste 17 Noroeste 0 -- -- 28
2020-10-31 15:00:00 23.2 5 Sur 16 Nordeste 0 -- -- 29
2020-10-31 14:00:00 21.9 9 Nordeste 19 Nordeste 0 -- -- 31
2020-10-31 13:00:00 21.4 9 Norte 19 Norte 0 -- -- 31
2020-10-31 12:00:00 21.4 5 Sudeste 11 Sudeste 0 -- -- 28
2020-10-31 11:00:00 15.9 6 Este 13 Sudeste 0 -- -- 41
2020-10-31 10:00:00 10.8 5 Sudeste 15 Este 0 -- -- 51
2020-10-31 09:00:00 5.9 7 Sudeste 19 Sudeste 0 -- -- 63
2020-10-31 08:00:00 2 3 Sudeste 11 Este 0 -- -- 77
2020-10-31 07:00:00 3.1 8 Sudeste 20 Sudeste 0 -- -- 74
2020-10-31 06:00:00 2.4 3 Oeste 13 Este 0 -- -- 75
2020-10-31 05:00:00 2.4 4 Noroeste 23 Sudeste 0 -- -- 77
2020-10-31 04:00:00 3.8 9 Sudeste 22 Sudeste 0 -- -- 73
2020-10-31 03:00:00 4.6 8 Sudeste 22 Sudeste 0 -- -- 71
2020-10-31 02:00:00 5 7 Sudeste 28 Sudeste 0 -- -- 69
2020-10-31 01:00:00 5.7 4 Sur 15 Sudeste 0 -- -- 66
2020-10-31 00:00:00 6.7 0 Calma 17 Este 0 -- -- 62
2020-10-30 23:00:00 8 5 Sudeste 12 Sudeste 0 -- -- 58
2020-10-30 22:00:00 8.9 3 Sudeste 7 Sudeste 0 -- -- 53
2020-10-30 21:00:00 11.2 2 Noroeste 6 Sudeste 0 -- -- 46
2020-10-30 20:00:00 13.5 0 Calma 14 Sudoeste 0 -- -- 40
2020-10-30 19:00:00 16.9 9 Sudoeste 28 Sudoeste 0 -- -- 34
2020-10-30 18:00:00 19.6 8 Sur 18 Sur 0 -- -- 26
2020-10-30 17:00:00 22.6 7 Sudoeste 17 Nordeste 0 -- -- 21
2020-10-30 16:00:00 24.5 7 Este 15 Sudeste 0 -- -- 18
2020-10-30 15:00:00 24.4 5 Nordeste 12 Este 0 -- -- 18
2020-10-30 14:00:00 23.4 6 Nordeste 13 Este 0 -- -- 17
2020-10-30 13:00:00 21.2 7 Norte 12 Norte 0 -- -- 15
2020-10-30 12:00:00 18.2 3 Norte 11 Sudeste 0 -- -- 23
2020-10-30 11:00:00 13.9 8 Este 20 Sudeste 0 -- -- 30
2020-10-30 10:00:00 8.5 8 Sudeste 21 Sudeste 0 -- -- 40
2020-10-30 09:00:00 4.1 8 Sudeste 26 Este 0 -- -- 49
2020-10-30 08:00:00 0.5 8 Sudeste 25 Sudeste 0 -- -- 61
2020-10-30 07:00:00 1 8 Este 26 Este 0 -- -- 62
2020-10-30 06:00:00 0.4 7 Sudeste 21 Este 0 -- -- 68
2020-10-30 05:00:00 0.8 9 Sudeste 22 Este 0 -- -- 72
2020-10-30 04:00:00 1.5 3 Noroeste 27 Este 0 -- -- 71
2020-10-30 03:00:00 3.1 12 Sudeste 23 Este 0 -- -- 70
2020-10-30 02:00:00 3.9 13 Sudeste 23 Este 0 -- -- 74
2020-10-30 01:00:00 5.1 6 Sudeste 18 Este 0 -- -- 73
2020-10-30 00:00:00 6.5 10 Sudeste 24 Sudeste 0 -- -- 72
2020-10-29 23:00:00 7.7 5 Sudeste 22 Este 0 -- -- 69
2020-10-29 22:00:00 8.9 6 Sur 16 Sudeste 0 -- -- 66
2020-10-29 21:00:00 10.6 7 Sudeste 13 Este 0 -- -- 60
2020-10-29 20:00:00 12.3 2 Oeste 11 Sudoeste 0 -- -- 55
2020-10-29 19:00:00 14.3 2 Sudeste 8 Noroeste 0 -- -- 54
2020-10-29 18:00:00 17 6 Noroeste 18 Noroeste 0 -- -- 48
2020-10-29 17:00:00 19.5 13 Noroeste 23 Noroeste 0 -- -- 43
2020-10-29 16:00:00 20.5 11 Norte 23 Norte 0 -- -- 43
2020-10-29 15:00:00 22.2 4 Este 13 Sudeste 0 -- -- 33
2020-10-29 14:00:00 21.4 6 Este 15 Sudeste 0 -- -- 38
2020-10-29 13:00:00 19.3 5 Sudeste 15 Este 0 -- -- 45
2020-10-29 12:00:00 14.7 6 Este 23 Sudoeste 0 -- -- 70
2020-10-29 11:00:00 9.9 14 Sur 23 Sudoeste 0 -- -- 82
2020-10-29 10:00:00 7.5 6 Sur 13 Sur 0 -- -- 90
2020-10-29 09:00:00 7 9 Sudoeste 18 Sudoeste 0 -- -- 92
2020-10-29 08:00:00 6.7 11 Sudoeste 19 Sudoeste 0 -- -- 93
2020-10-29 07:00:00 6.7 4 Oeste 15 Sudoeste 0 -- -- 94
2020-10-29 06:00:00 6.6 4 Sudeste 14 Este 0 -- -- 94
2020-10-29 05:00:00 6.3 4 Sudeste 18 Sur 0 -- -- 95
2020-10-29 04:00:00 5.7 4 Sudeste 10 Este 0 -- -- 96
2020-10-29 03:00:00 4.9 4 Este 8 Sur 0 -- -- 95
2020-10-29 02:00:00 5.3 4 Sur 13 Este 0 -- -- 93
2020-10-29 01:00:00 6.3 5 Sudeste 12 Este 0 -- -- 90
2020-10-29 00:00:00 6.9 7 Sudeste 14 Sudeste 0 -- -- 89
2020-10-28 23:00:00 7.4 5 Sur 12 Este 0 -- -- 86
2020-10-28 22:00:00 8.5 5 Sudeste 9 Sur 0 -- -- 84
2020-10-28 21:00:00 9.5 4 Oeste 7 Este 0 -- -- 81
2020-10-28 20:00:00 11.1 2 Norte 14 Sudoeste 0 -- -- 74
2020-10-28 19:00:00 12.9 12 Sudoeste 15 Sudoeste 0 -- -- 70
2020-10-28 18:00:00 14.5 11 Sudoeste 18 Sudoeste 0 -- -- 61
2020-10-28 17:00:00 17 8 Sudoeste 17 Sudoeste 0 -- -- 51
2020-10-28 16:00:00 18.6 9 Oeste 23 Oeste 0 -- -- 47
2020-10-28 15:00:00 18.5 10 Oeste 23 Noroeste 0 -- -- 47
2020-10-28 14:00:00 19.3 14 Oeste 23 Oeste 0 -- -- 46
2020-10-28 13:00:00 19.3 15 Oeste 30 Oeste 0 -- -- 48
2020-10-28 12:00:00 17.7 11 Oeste 22 Oeste 0 -- -- 55
2020-10-28 11:00:00 13.8 4 Norte 17 Este 0 -- -- 66
2020-10-28 10:00:00 11.8 11 Este 15 Este 0 -- -- 71
2020-10-28 09:00:00 5.8 4 Sudeste 10 Sudeste 0 -- -- 89
2020-10-28 08:00:00 2.4 0 Calma 6 Oeste 0 -- -- 93
2020-10-28 07:00:00 2.6 0 Calma 9 Oeste 0 -- -- 91
2020-10-28 06:00:00 3 4 Sudeste 10 Norte 0 -- -- 90
2020-10-28 05:00:00 4.1 6 Sur 9 Sur 0 -- -- 88
2020-10-28 04:00:00 3.9 5 Oeste 8 Oeste 0 -- -- 87
2020-10-28 03:00:00 4.1 2 Oeste 8 Sur 0 -- -- 84
2020-10-28 02:00:00 5.1 2 Sudeste 8 Sudoeste 0 -- -- 81
2020-10-28 01:00:00 5.3 5 Sur 10 Sur 0 -- -- 80
2020-10-28 00:00:00 4.8 0 Calma 6 Sur 0 -- -- 80